Gooch Mill, Missouri
Current Conditions -  °F | °C
As of 9:55 AM on Friday 24 Oct 2014 (Local Time) from KVER Reporting Station
Broken Clouds Broken Clouds  
Wind Chill: 17°   Ceiling: 800
Heat Index: 17°   Visibility: 10mi
Dew Point: 15°   Wind: 5mph
Humidity: 91%   Direction: 170°S
Pressure: 30.1"   Gusts: NA
Location:  38.8814°N, 92.7602°W
Report Text: KVER 241455Z AUTO 17004KT 10SM BKN008 BKN029 BKN034 17/15 A3010 RMK AO2 T01680153
Loading
Personal Weather Stations






























Interactive Weather Map
Tropical Storm Tracking
New forecast layout! Learn more

10-Day Weather Forecast

Advertisements
Track Severe Weather on mobile